createdAt,value
2018-03-17T00:01:23.472Z,30.95
2018-03-17T00:03:50.996Z,33.17
2018-03-17T00:06:19.298Z,26.95
2018-03-17T00:08:46.881Z,34.03
2018-03-17T00:11:15.158Z,32.40
2018-03-17T00:13:42.682Z,30.60
2018-03-17T00:16:10.986Z,32.90
2018-03-17T00:18:38.561Z,30.52
2018-03-17T00:21:06.103Z,31.65
2018-03-17T00:23:33.627Z,25.90
2018-03-17T00:26:01.172Z,28.27
2018-03-17T00:28:28.802Z,28.45
2018-03-17T00:30:56.362Z,30.48
2018-03-17T00:33:23.918Z,31.12
2018-03-17T00:35:51.455Z,31.65
2018-03-17T00:38:18.970Z,29.75
2018-03-17T00:40:46.602Z,31.30
2018-03-17T00:43:14.117Z,36.22
2018-03-17T00:45:42.412Z,29.02
2018-03-17T00:48:09.962Z,35.58
2018-03-17T00:50:38.278Z,32.60
2018-03-17T00:53:05.816Z,27.75
2018-03-17T00:55:33.334Z,29.77
2018-03-17T00:58:00.880Z,33.85
2018-03-17T01:00:28.407Z,31.48
2018-03-17T01:02:55.950Z,30.05
2018-03-17T01:05:23.473Z,33.72
2018-03-17T01:07:51.098Z,32.30
2018-03-17T01:10:18.663Z,36.35
2018-03-17T01:12:46.212Z,35.88
2018-03-17T01:15:13.734Z,31.20
2018-03-17T01:17:42.047Z,27.62
2018-03-17T01:20:09.572Z,32.20
2018-03-17T01:22:37.871Z,34.80
2018-03-17T01:25:05.409Z,33.60
2018-03-17T01:27:33.690Z,32.08
2018-03-17T01:30:01.999Z,32.33
2018-03-17T01:32:29.566Z,31.10
2018-03-17T01:34:57.109Z,34.00
2018-03-17T01:37:24.637Z,28.77
2018-03-17T01:39:52.242Z,33.92
2018-03-17T01:42:19.767Z,38.05
2018-03-17T01:44:48.087Z,32.30
2018-03-17T01:47:15.608Z,30.98
2018-03-17T01:49:43.923Z,37.78
2018-03-17T01:52:11.492Z,34.40
2018-03-17T01:54:39.009Z,31.70
2018-03-17T01:57:07.320Z,30.08
2018-03-17T01:59:34.842Z,29.50
2018-03-17T02:02:03.158Z,29.25
2018-03-17T02:04:30.688Z,31.00
2018-03-17T02:06:59.002Z,35.88
2018-03-17T02:09:26.534Z,33.05
2018-03-17T02:11:54.119Z,35.30
2018-03-17T02:14:21.677Z,28.12
2018-03-17T02:16:49.224Z,30.83
2018-03-17T02:19:16.803Z,30.30
2018-03-17T02:21:44.361Z,29.80
2018-03-17T02:24:11.884Z,30.60
2018-03-17T02:26:40.192Z,31.30
2018-03-17T02:29:07.715Z,33.15
2018-03-17T02:31:36.006Z,32.15
2018-03-17T02:34:03.600Z,33.13
2018-03-17T02:36:31.125Z,31.25
2018-03-17T02:38:58.677Z,33.40
2018-03-17T02:41:26.970Z,34.05
2018-03-17T02:43:55.470Z,32.63
2018-03-17T02:46:23.024Z,29.25
2018-03-17T02:48:50.589Z,29.40
2018-03-17T02:51:18.113Z,25.27
2018-03-17T02:53:46.430Z,26.02
2018-03-17T02:56:13.963Z,27.62
2018-03-17T02:58:41.516Z,29.15
2018-03-17T03:01:09.801Z,25.30
2018-03-17T03:03:38.213Z,31.67
2018-03-17T03:06:05.753Z,28.45
2018-03-17T03:08:33.315Z,25.65
2018-03-17T03:11:00.858Z,29.40
2018-03-17T03:13:29.151Z,31.83
2018-03-17T03:15:56.701Z,28.50
2018-03-17T03:18:24.230Z,32.35
2018-03-17T03:20:51.773Z,31.08
2018-03-17T03:23:19.298Z,28.20
2018-03-17T03:25:46.854Z,26.85
2018-03-17T03:28:14.379Z,25.05
2018-03-17T03:30:42.686Z,31.80
2018-03-17T03:33:10.211Z,28.15
2018-03-17T03:35:37.750Z,29.87
2018-03-17T03:38:05.286Z,32.40
2018-03-17T03:40:32.842Z,26.77
2018-03-17T03:43:00.370Z,25.45
2018-03-17T03:45:28.683Z,28.25
2018-03-17T03:47:56.214Z,28.98
2018-03-17T03:50:23.757Z,28.50
2018-03-17T03:52:52.045Z,29.27
2018-03-17T03:55:20.369Z,26.15
2018-03-17T03:57:47.898Z,24.63
2018-03-17T04:00:15.425Z,25.17
2018-03-17T04:02:43.737Z,26.65
2018-03-17T04:05:11.258Z,24.95
2018-03-17T04:07:38.805Z,24.52
2018-03-17T04:10:06.338Z,18.92
2018-03-17T04:12:33.875Z,29.23
2018-03-17T04:15:01.814Z,21.77
2018-03-17T04:17:30.115Z,24.25
2018-03-17T04:19:57.633Z,28.50
2018-03-17T04:22:25.175Z,22.30
2018-03-17T04:24:52.702Z,21.87
2018-03-17T04:27:20.242Z,21.35
2018-03-17T04:29:48.533Z,23.95
2018-03-17T04:32:16.069Z,21.20
2018-03-17T04:34:44.365Z,24.70
2018-03-17T04:37:11.958Z,26.20
2018-03-17T04:39:39.482Z,22.50
2018-03-17T04:42:07.004Z,22.17
2018-03-17T04:44:34.633Z,26.95
2018-03-17T04:47:02.157Z,29.58
2018-03-17T04:49:30.564Z,23.38
2018-03-17T04:51:58.086Z,24.73
2018-03-17T04:54:26.394Z,26.70
2018-03-17T04:56:53.962Z,26.08
2018-03-17T04:59:21.506Z,23.98
2018-03-17T05:01:49.083Z,23.30
2018-03-17T05:04:16.622Z,22.13
2018-03-17T05:06:44.140Z,23.25
2018-03-17T05:09:11.684Z,22.80
2018-03-17T05:11:39.217Z,23.87
2018-03-17T05:14:06.753Z,21.02
2018-03-17T05:16:35.058Z,25.55
2018-03-17T05:19:02.628Z,20.33
2018-03-17T05:21:30.178Z,23.40
2018-03-17T05:23:57.740Z,20.67
2018-03-17T05:26:25.301Z,21.58
2018-03-17T05:28:52.858Z,22.02
2018-03-17T05:31:20.409Z,21.50
2018-03-17T05:33:47.929Z,21.55
2018-03-17T05:36:15.469Z,23.70
2018-03-17T05:38:42.989Z,18.77
2018-03-17T05:41:10.534Z,16.15
2018-03-17T05:43:38.117Z,18.65
2018-03-17T05:46:05.658Z,20.05
2018-03-17T05:48:33.237Z,19.55
2018-03-17T05:51:00.901Z,17.10
2018-03-17T05:53:28.461Z,15.43
2018-03-17T05:55:56.021Z,17.27
2018-03-17T05:58:23.549Z,15.55
2018-03-17T06:00:51.858Z,15.32
2018-03-17T06:03:19.426Z,17.35
2018-03-17T06:05:46.974Z,16.17
2018-03-17T06:08:14.500Z,15.32
2018-03-17T06:10:42.814Z,15.68
2018-03-17T06:13:10.338Z,14.55
2018-03-17T06:15:38.650Z,15.85
2018-03-17T06:18:06.175Z,13.27
2018-03-17T06:20:34.486Z,14.13
2018-03-17T06:23:02.019Z,14.20
2018-03-17T06:25:30.331Z,13.23
2018-03-17T06:27:57.894Z,14.95
2018-03-17T06:30:25.554Z,13.95
2018-03-17T06:32:53.114Z,16.40
2018-03-17T06:35:20.630Z,19.02
2018-03-17T06:37:48.942Z,15.73
2018-03-17T06:40:16.465Z,17.15
2018-03-17T06:42:44.777Z,15.15
2018-03-17T06:45:12.346Z,19.08
2018-03-17T06:47:39.918Z,15.70
2018-03-17T06:50:07.440Z,15.20
2018-03-17T06:52:35.742Z,18.48
2018-03-17T06:55:03.306Z,16.67
2018-03-17T06:57:30.846Z,16.50
2018-03-17T06:59:58.370Z,17.10
2018-03-17T07:02:26.673Z,16.95
2018-03-17T07:04:54.962Z,16.80
2018-03-17T07:07:22.501Z,14.65
2018-03-17T07:09:50.790Z,17.48
2018-03-17T07:12:19.146Z,16.65
2018-03-17T07:14:46.645Z,19.17
2018-03-17T07:17:14.169Z,17.30
2018-03-17T07:19:41.711Z,20.83
2018-03-17T07:22:09.246Z,19.55
2018-03-17T07:24:36.798Z,17.75
2018-03-17T07:27:04.325Z,17.58
2018-03-17T07:29:32.633Z,16.37
2018-03-17T07:32:00.156Z,17.50
2018-03-17T07:34:28.461Z,20.73
2018-03-17T07:36:55.977Z,16.37
2018-03-17T07:39:23.603Z,17.35
2018-03-17T07:41:51.141Z,15.82
2018-03-17T07:44:18.681Z,16.75
2018-03-17T07:46:46.972Z,18.70
2018-03-17T07:49:14.518Z,26.50
2018-03-17T07:51:42.815Z,17.02
2018-03-17T07:54:10.334Z,16.62
2018-03-17T07:56:37.884Z,16.17
2018-03-17T07:59:05.406Z,15.80
2018-03-17T08:01:32.943Z,19.25
2018-03-17T08:04:00.468Z,14.73
2018-03-17T08:06:28.078Z,17.50
2018-03-17T08:08:55.812Z,12.48
2018-03-17T08:11:23.438Z,15.68
2018-03-17T08:13:50.958Z,14.90
2018-03-17T08:16:18.501Z,15.23
2018-03-17T08:18:46.793Z,13.23
2018-03-17T08:21:14.339Z,15.27
2018-03-17T08:23:42.625Z,11.50
2018-03-17T08:26:10.175Z,16.20
2018-03-17T08:28:38.481Z,16.75
2018-03-17T08:31:06.026Z,12.55
2018-03-17T08:33:33.550Z,16.60
2018-03-17T08:36:01.090Z,15.32
2018-03-17T08:38:28.612Z,19.23
2018-03-17T08:40:56.154Z,13.25
2018-03-17T08:43:24.464Z,12.23
2018-03-17T08:45:51.989Z,16.42
2018-03-17T08:48:19.557Z,15.38
2018-03-17T08:50:47.078Z,11.30
2018-03-17T08:53:14.620Z,14.52
2018-03-17T08:55:42.137Z,17.50
2018-03-17T08:58:09.689Z,12.80
2018-03-17T09:00:37.975Z,11.52
2018-03-17T09:03:05.555Z,15.73
2018-03-17T09:05:33.118Z,11.07
2018-03-17T09:08:00.682Z,10.88
2018-03-17T09:10:28.207Z,10.50
2018-03-17T09:12:56.512Z,12.50
2018-03-17T09:15:24.075Z,11.10
2018-03-17T09:17:51.620Z,10.88
2018-03-17T09:20:19.147Z,11.12
2018-03-17T09:22:46.712Z,15.23
2018-03-17T09:25:14.998Z,12.77
2018-03-17T09:27:43.319Z,13.25
2018-03-17T09:30:10.864Z,12.00
2018-03-17T09:32:38.442Z,11.80
2018-03-17T09:35:05.994Z,12.50
2018-03-17T09:37:33.521Z,10.63
2018-03-17T09:40:01.822Z,12.07
2018-03-17T09:42:29.358Z,12.77
2018-03-17T09:44:57.665Z,11.25
2018-03-17T09:47:25.214Z,15.18
2018-03-17T09:49:52.754Z,11.02
2018-03-17T09:52:21.094Z,9.63
2018-03-17T09:54:48.630Z,10.80
2018-03-17T09:57:16.186Z,12.30
2018-03-17T09:59:43.761Z,13.48
2018-03-17T10:02:11.285Z,11.65
2018-03-17T10:04:39.591Z,10.90
2018-03-17T10:07:07.157Z,11.40
2018-03-17T10:09:34.698Z,11.82
2018-03-17T10:12:02.219Z,11.02
2018-03-17T10:14:29.826Z,11.12
2018-03-17T10:16:57.389Z,11.68
2018-03-17T10:19:24.955Z,14.30
2018-03-17T10:21:52.515Z,10.77
2018-03-17T10:24:20.031Z,12.37
2018-03-17T10:26:48.332Z,12.37
2018-03-17T10:29:15.854Z,10.60
2018-03-17T10:31:43.466Z,13.55
2018-03-17T10:34:10.992Z,16.08
2018-03-17T10:36:38.540Z,13.90
2018-03-17T10:39:06.151Z,14.63
2018-03-17T10:41:33.713Z,15.30
2018-03-17T10:44:01.259Z,15.15
2018-03-17T10:46:28.843Z,16.73
2018-03-17T10:48:56.397Z,14.32
2018-03-17T10:51:23.934Z,12.60
2018-03-17T10:53:51.519Z,13.45
2018-03-17T10:56:19.065Z,12.77
2018-03-17T10:58:46.589Z,10.90
2018-03-17T11:01:20.018Z,12.30
2018-03-17T11:03:47.542Z,14.68
2018-03-17T11:06:15.097Z,12.07
2018-03-17T11:08:42.625Z,13.23
2018-03-17T11:11:10.173Z,14.18
2018-03-17T11:13:37.702Z,11.65
2018-03-17T11:16:06.002Z,15.90
2018-03-17T11:18:33.546Z,13.43
2018-03-17T11:21:01.064Z,11.95
2018-03-17T11:23:28.606Z,15.43
2018-03-17T11:25:56.132Z,11.57
2018-03-17T11:28:23.715Z,16.08
2018-03-17T11:30:51.226Z,12.18
2018-03-17T11:33:19.550Z,11.73
2018-03-17T11:35:47.061Z,11.63
2018-03-17T11:38:15.380Z,16.12
2018-03-17T11:40:42.909Z,15.90
2018-03-17T11:43:10.502Z,12.57
2018-03-17T11:45:38.021Z,13.93
2018-03-17T11:48:06.329Z,12.48
2018-03-17T11:50:33.847Z,12.40
2018-03-17T11:53:01.391Z,13.90
2018-03-17T11:55:28.922Z,17.87
2018-03-17T11:57:56.687Z,17.00
2018-03-17T12:00:24.219Z,12.77
2018-03-17T12:02:52.557Z,16.70
2018-03-17T12:05:20.061Z,15.32
2018-03-17T12:07:47.586Z,15.65
2018-03-17T12:10:16.630Z,14.95
2018-03-17T12:12:44.146Z,19.33
2018-03-17T12:15:11.691Z,14.82
2018-03-17T12:17:39.216Z,15.32
2018-03-17T12:20:06.762Z,14.20
2018-03-17T12:22:34.281Z,13.38
2018-03-17T12:25:01.826Z,13.82
2018-03-17T12:27:29.341Z,13.90
2018-03-17T12:29:56.918Z,16.20
2018-03-17T12:32:24.433Z,15.93
2018-03-17T12:34:52.743Z,19.12
2018-03-17T12:37:20.318Z,14.63
2018-03-17T12:39:47.862Z,14.52
2018-03-17T12:42:15.390Z,16.05
2018-03-17T12:44:43.717Z,19.25
2018-03-17T12:47:11.271Z,15.45
2018-03-17T12:49:38.830Z,15.60
2018-03-17T12:52:06.378Z,12.23
2018-03-17T12:54:33.911Z,17.77
2018-03-17T12:57:02.261Z,14.70
2018-03-17T12:59:29.754Z,16.80
2018-03-17T13:01:58.058Z,15.15
2018-03-17T13:04:25.581Z,15.77
2018-03-17T13:06:53.910Z,17.83
2018-03-17T13:09:21.429Z,13.07
2018-03-17T13:11:49.749Z,16.30
2018-03-17T13:14:17.272Z,13.77
2018-03-17T13:16:45.588Z,18.48
2018-03-17T13:19:24.978Z,17.33
2018-03-17T13:21:52.513Z,16.20
2018-03-17T13:24:20.038Z,16.33
2018-03-17T13:29:47.371Z,17.87
2018-03-17T13:32:27.473Z,15.20
2018-03-17T13:34:54.998Z,18.15
2018-03-17T13:37:35.162Z,17.52
2018-03-17T13:40:03.453Z,19.70
2018-03-17T13:42:31.024Z,17.73
2018-03-17T13:44:58.545Z,18.60
2018-03-17T13:47:26.867Z,17.65
2018-03-17T13:49:54.398Z,21.90
2018-03-17T13:52:21.937Z,15.85
2018-03-17T13:54:50.229Z,17.55
2018-03-17T13:57:18.551Z,13.38
2018-03-17T13:59:46.079Z,18.67
2018-03-17T14:02:13.658Z,19.17
2018-03-17T14:04:41.214Z,17.25
2018-03-17T14:07:08.740Z,17.92
2018-03-17T14:09:37.044Z,18.80
2018-03-17T14:12:04.566Z,16.23
2018-03-17T14:14:32.101Z,13.82
2018-03-17T14:16:59.636Z,17.92
2018-03-17T14:19:27.178Z,17.83
2018-03-17T14:21:54.703Z,20.02
2018-03-17T14:24:22.321Z,17.77
2018-03-17T14:26:49.853Z,17.27
2018-03-17T14:29:17.389Z,16.23
2018-03-17T14:31:44.905Z,16.75
2018-03-17T14:34:12.444Z,14.00
2018-03-17T14:36:40.014Z,15.60
2018-03-17T14:39:07.578Z,14.13
2018-03-17T14:41:35.103Z,18.20
2018-03-17T14:44:03.414Z,19.30
2018-03-17T14:46:30.963Z,21.98
2018-03-17T14:48:59.438Z,16.77
2018-03-17T14:51:27.123Z,25.33
2018-03-17T14:53:54.650Z,15.55
2018-03-17T14:56:22.218Z,20.80
2018-03-17T14:58:49.802Z,14.80
2018-03-17T15:01:17.346Z,14.43
2018-03-17T15:03:44.918Z,15.88
2018-03-17T15:06:12.457Z,17.33
2018-03-17T15:08:39.985Z,14.52
2018-03-17T15:11:07.522Z,15.68
2018-03-17T15:13:35.037Z,14.57
2018-03-17T15:16:02.615Z,15.38
2018-03-17T15:18:30.139Z,15.98
2018-03-17T15:20:58.446Z,19.00
2018-03-17T15:23:26.022Z,17.27
2018-03-17T15:25:53.582Z,18.70
2018-03-17T15:28:21.134Z,20.92
2018-03-17T15:30:48.709Z,16.10
2018-03-17T15:33:16.246Z,12.70
2018-03-17T15:35:43.767Z,14.48
2018-03-17T15:38:11.377Z,15.45
2018-03-17T15:40:38.898Z,15.93
2018-03-17T15:43:07.222Z,15.90
2018-03-17T15:45:34.746Z,16.30
2018-03-17T15:48:03.055Z,15.13
2018-03-17T15:50:30.584Z,24.33
2018-03-17T15:52:58.890Z,14.65
2018-03-17T15:55:26.413Z,13.48
2018-03-17T15:57:54.727Z,13.35
2018-03-17T16:00:22.250Z,14.23
2018-03-17T16:02:50.662Z,15.88
2018-03-17T16:05:18.186Z,16.37
2018-03-17T16:07:46.498Z,20.65
2018-03-17T16:10:14.023Z,17.27
2018-03-17T16:12:42.345Z,13.43
2018-03-17T16:15:09.862Z,20.58
2018-03-17T16:17:38.177Z,13.13
2018-03-17T16:20:05.693Z,15.18
2018-03-17T16:22:33.213Z,14.93
2018-03-17T16:25:00.760Z,16.02
2018-03-17T16:27:28.324Z,20.15
2018-03-17T16:29:55.877Z,14.98
2018-03-17T16:32:23.443Z,14.63
2018-03-17T16:34:51.207Z,13.60
2018-03-17T16:37:18.755Z,14.87
2018-03-17T16:39:46.295Z,14.07
2018-03-17T16:42:14.587Z,15.93
2018-03-17T16:44:42.166Z,12.02
2018-03-17T16:47:09.685Z,20.45
2018-03-17T16:49:37.989Z,16.50
2018-03-17T16:52:05.519Z,13.25
2018-03-17T16:54:33.085Z,14.35
2018-03-17T16:57:01.383Z,11.65
2018-03-17T16:59:28.939Z,15.93
2018-03-17T17:01:56.469Z,13.48
2018-03-17T17:04:24.083Z,16.45
2018-03-17T17:06:51.606Z,14.02
2018-03-17T17:09:19.890Z,17.85
2018-03-17T17:11:48.295Z,22.55
2018-03-17T17:14:15.826Z,16.60
2018-03-17T17:16:44.226Z,17.98
2018-03-17T17:19:11.807Z,13.55
2018-03-17T17:21:39.347Z,17.67
2018-03-17T17:24:06.873Z,21.08
2018-03-17T17:26:34.494Z,19.80
2018-03-17T17:29:02.040Z,14.52
2018-03-17T17:31:29.585Z,12.68
2018-03-17T17:33:57.116Z,13.70
2018-03-17T17:36:24.662Z,17.58
2018-03-17T17:38:52.193Z,13.52
2018-03-17T17:41:19.850Z,12.80
2018-03-17T17:43:47.403Z,13.65
2018-03-17T17:46:14.927Z,13.43
2018-03-17T17:48:43.269Z,18.10
2018-03-17T17:51:10.774Z,16.95
2018-03-17T17:53:39.077Z,16.40
2018-03-17T17:56:06.599Z,15.40
2018-03-17T17:58:34.926Z,13.18
2018-03-17T18:01:02.456Z,15.30
2018-03-17T18:03:30.764Z,19.77
2018-03-17T18:05:58.290Z,14.68
2018-03-17T18:08:26.594Z,17.12
2018-03-17T18:10:54.747Z,15.13
2018-03-17T18:13:22.641Z,14.35
2018-03-17T18:15:50.624Z,15.50
2018-03-17T18:18:18.272Z,11.95
2018-03-17T18:20:45.799Z,16.05
2018-03-17T18:23:14.115Z,15.38
2018-03-17T18:25:41.852Z,16.67
2018-03-17T18:28:09.445Z,16.52
2018-03-17T18:30:36.977Z,14.32
2018-03-17T18:33:04.516Z,12.23
2018-03-17T18:35:32.424Z,15.30
2018-03-17T18:37:59.988Z,18.77
2018-03-17T18:40:27.653Z,15.18
2018-03-17T18:42:55.949Z,14.07
2018-03-17T18:45:24.771Z,16.05
2018-03-17T18:47:53.718Z,16.98
2018-03-17T18:50:21.268Z,15.95
2018-03-17T18:52:48.830Z,18.02
2018-03-17T18:55:17.840Z,17.10
2018-03-17T18:57:46.041Z,21.37
2018-03-17T19:00:13.655Z,14.05
2018-03-17T19:02:41.221Z,19.92
2018-03-17T19:05:08.763Z,15.65
2018-03-17T19:07:36.343Z,15.13
2018-03-17T19:10:03.890Z,13.75
2018-03-17T19:12:31.417Z,14.82
2018-03-17T19:14:59.736Z,23.15
2018-03-17T19:17:27.301Z,20.73
2018-03-17T19:19:54.846Z,20.42
2018-03-17T19:22:22.376Z,19.75
2018-03-17T19:24:50.684Z,20.80
2018-03-17T19:27:18.259Z,16.48
2018-03-17T19:29:45.805Z,14.32
2018-03-17T19:32:13.374Z,17.42
2018-03-17T19:34:40.893Z,20.15
2018-03-17T19:37:09.209Z,16.92
2018-03-17T19:39:36.733Z,18.90
2018-03-17T19:42:05.069Z,18.62
2018-03-17T19:44:32.657Z,19.37
2018-03-17T19:47:00.161Z,21.50
2018-03-17T19:49:27.730Z,18.25
2018-03-17T19:51:55.294Z,22.48
2018-03-17T19:54:22.812Z,22.08
2018-03-17T19:56:51.113Z,19.85
2018-03-17T19:59:18.639Z,18.40
2018-03-17T20:01:46.263Z,21.55
2018-03-17T20:04:13.781Z,19.08
2018-03-17T20:06:42.136Z,24.52
2018-03-17T20:09:09.630Z,19.17
2018-03-17T20:11:37.166Z,16.73
2018-03-17T20:14:05.452Z,22.15
2018-03-17T20:16:33.774Z,24.37
2018-03-17T20:19:01.326Z,16.75
2018-03-17T20:21:28.849Z,20.33
2018-03-17T20:23:57.261Z,16.10
2018-03-17T20:26:24.782Z,19.40
2018-03-17T20:28:53.086Z,20.27
2018-03-17T20:31:20.605Z,16.08
2018-03-17T20:33:48.137Z,19.23
2018-03-17T20:36:15.658Z,27.75
2018-03-17T20:38:43.202Z,16.12
2018-03-17T20:41:11.502Z,18.25
2018-03-17T20:43:39.038Z,19.50
2018-03-17T20:46:07.331Z,18.08
2018-03-17T20:48:35.641Z,17.40
2018-03-17T20:51:03.161Z,21.52
2018-03-17T20:53:31.465Z,24.20
2018-03-17T20:55:59.031Z,20.42
2018-03-17T20:58:26.576Z,18.37
2018-03-17T21:00:54.103Z,19.73
2018-03-17T21:03:22.387Z,18.87
2018-03-17T21:05:50.694Z,22.10
2018-03-17T21:08:18.259Z,24.20
2018-03-17T21:10:45.797Z,19.80
2018-03-17T21:13:13.382Z,19.90
2018-03-17T21:15:40.924Z,16.87
2018-03-17T21:18:08.450Z,19.62
2018-03-17T21:20:35.985Z,22.50
2018-03-17T21:23:03.515Z,19.27
2018-03-17T21:25:31.053Z,18.33
2018-03-17T21:27:59.334Z,18.60
2018-03-17T21:30:26.918Z,16.83
2018-03-17T21:32:54.432Z,20.60
2018-03-17T21:35:21.986Z,26.02
2018-03-17T21:37:49.506Z,16.80
2018-03-17T21:40:17.029Z,25.35
2018-03-17T21:42:45.441Z,20.35
2018-03-17T21:45:13.446Z,20.60
2018-03-17T21:47:41.177Z,20.50
2018-03-17T21:50:08.837Z,19.60
2018-03-17T21:52:37.045Z,20.62
2018-03-17T21:55:05.318Z,18.30
2018-03-17T21:57:34.390Z,17.50
2018-03-17T22:00:03.324Z,17.98
2018-03-17T22:02:32.186Z,20.27
2018-03-17T22:05:00.650Z,21.23
2018-03-17T22:07:29.236Z,24.65
2018-03-17T22:09:57.585Z,24.10
2018-03-17T22:12:25.903Z,19.42
2018-03-17T22:14:54.185Z,15.77
2018-03-17T22:17:22.036Z,20.92
2018-03-17T22:19:50.014Z,18.80
2018-03-17T22:22:18.478Z,16.25
2018-03-17T22:24:46.624Z,17.12
2018-03-17T22:27:14.910Z,15.80
2018-03-17T22:29:43.214Z,17.42
2018-03-17T22:32:10.745Z,18.55
2018-03-17T22:34:39.055Z,15.70
2018-03-17T22:37:06.578Z,20.40
2018-03-17T22:39:34.993Z,17.05
2018-03-17T22:42:02.518Z,13.45
2018-03-17T22:44:30.822Z,19.60
2018-03-17T22:46:58.394Z,16.73
2018-03-17T22:49:25.940Z,16.87
2018-03-17T22:51:53.476Z,17.98
2018-03-17T22:54:21.790Z,17.62
2018-03-17T22:56:49.314Z,16.80
2018-03-17T22:59:17.627Z,16.20
2018-03-17T23:01:45.150Z,22.20
2018-03-17T23:04:13.454Z,16.05
2018-03-17T23:06:40.978Z,15.20
2018-03-17T23:09:09.267Z,17.00
2018-03-17T23:11:37.674Z,20.65
2018-03-17T23:14:05.241Z,22.33
2018-03-17T23:16:32.782Z,20.27
2018-03-17T23:19:00.367Z,18.58
2018-03-17T23:21:27.916Z,18.00
2018-03-17T23:23:55.438Z,19.48
2018-03-17T23:26:23.753Z,21.90
2018-03-17T23:28:51.280Z,19.08
2018-03-17T23:31:19.585Z,21.58
2018-03-17T23:33:47.111Z,16.65
2018-03-17T23:36:15.423Z,19.25
2018-03-17T23:38:42.946Z,21.08
2018-03-17T23:41:11.252Z,15.00
2018-03-17T23:43:38.773Z,17.17
2018-03-17T23:46:06.319Z,20.17
2018-03-17T23:48:33.842Z,21.95
2018-03-17T23:51:01.389Z,18.10
2018-03-17T23:53:28.913Z,19.80
2018-03-17T23:55:56.482Z,19.25
2018-03-17T23:58:23.994Z,15.23
